createdAt,value
2018-08-10T04:00:28.365Z,66.60
2018-08-10T04:01:28.325Z,67.71
2018-08-10T04:02:28.323Z,66.71
2018-08-10T04:03:28.312Z,65.90
2018-08-10T04:04:28.285Z,65.90
2018-08-10T04:05:28.282Z,66.91
2018-08-10T04:06:28.299Z,66.00
2018-08-10T04:07:28.277Z,66.60
2018-08-10T04:08:28.245Z,66.94
2018-08-10T04:09:28.236Z,67.21
2018-08-10T04:10:28.234Z,67.00
2018-08-10T04:11:28.211Z,67.34
2018-08-10T04:12:28.209Z,68.04
2018-08-10T04:13:28.209Z,66.94
2018-08-10T04:14:28.209Z,67.24
2018-08-10T04:15:28.177Z,67.84
2018-08-10T04:16:28.166Z,68.44
2018-08-10T04:17:28.143Z,68.24
2018-08-10T04:18:28.161Z,68.15
2018-08-10T04:19:28.121Z,67.64
2018-08-10T04:20:28.108Z,69.25
2018-08-10T04:21:28.104Z,69.96
2018-08-10T04:22:28.084Z,68.15
2018-08-10T04:23:28.095Z,68.44
2018-08-10T04:24:28.065Z,67.94
2018-08-10T04:25:28.059Z,67.03
2018-08-10T04:26:28.046Z,67.94
2018-08-10T04:27:28.031Z,68.85
2018-08-10T04:28:28.042Z,68.15
2018-08-10T04:29:28.070Z,67.03
2018-08-10T04:30:28.009Z,67.34
2018-08-10T04:31:27.983Z,67.54
2018-08-10T04:32:27.978Z,66.94
2018-08-10T04:33:27.990Z,68.15
2018-08-10T04:34:27.971Z,68.65
2018-08-10T04:35:27.953Z,69.25
2018-08-10T04:36:27.938Z,67.74
2018-08-10T04:37:27.916Z,67.94
2018-08-10T04:38:27.931Z,68.55
2018-08-10T04:39:27.899Z,68.75
2018-08-10T04:40:27.913Z,68.44
2018-08-10T04:41:27.871Z,67.14
2018-08-10T04:42:27.860Z,66.63
2018-08-10T04:43:27.868Z,68.24
2018-08-10T04:44:27.843Z,67.74
2018-08-10T04:45:27.837Z,66.53
2018-08-10T04:46:27.823Z,67.34
2018-08-10T04:47:27.808Z,68.24
2018-08-10T04:48:27.817Z,68.65
2018-08-10T04:49:27.794Z,69.02
2018-08-10T04:50:27.775Z,69.05
2018-08-10T04:51:27.782Z,66.83
2018-08-10T04:52:27.750Z,66.53
2018-08-10T04:53:27.781Z,66.74
2018-08-10T04:54:27.730Z,67.24
2018-08-10T04:55:27.754Z,67.34
2018-08-10T04:56:27.718Z,66.33
2018-08-10T04:57:27.715Z,67.03
2018-08-10T04:58:27.707Z,68.15
2018-08-10T04:59:27.679Z,67.44
2018-08-10T05:00:27.660Z,68.35
2018-08-10T05:01:27.658Z,67.54
2018-08-10T05:02:27.642Z,68.15
2018-08-10T05:03:27.656Z,68.15
2018-08-10T05:04:27.637Z,68.15
2018-08-10T05:05:27.628Z,66.63
2018-08-10T05:06:27.594Z,67.03
2018-08-10T05:07:27.588Z,65.42
2018-08-10T05:08:27.607Z,65.62
2018-08-10T05:09:27.568Z,65.42
2018-08-10T05:10:27.548Z,65.53
2018-08-10T05:11:27.545Z,65.93
2018-08-10T05:12:27.535Z,65.90
2018-08-10T05:13:27.524Z,65.39
2018-08-10T05:14:27.513Z,66.53
2018-08-10T05:15:27.498Z,66.60
2018-08-10T05:16:27.486Z,65.90
2018-08-10T05:17:27.470Z,64.89
2018-08-10T05:18:27.476Z,64.52
2018-08-10T05:19:27.455Z,63.28
2018-08-10T05:20:27.442Z,63.18
2018-08-10T05:21:27.429Z,61.90
2018-08-10T05:22:27.418Z,62.41
2018-08-10T05:23:27.414Z,61.90
2018-08-10T05:24:27.391Z,61.40
2018-08-10T05:25:27.384Z,61.10
2018-08-10T05:26:27.370Z,61.47
2018-08-10T05:27:27.359Z,61.60
2018-08-10T05:28:27.369Z,61.60
2018-08-10T05:29:27.352Z,60.87
2018-08-10T05:30:27.326Z,61.47
2018-08-10T05:31:27.316Z,59.86
2018-08-10T05:32:27.306Z,60.27
2018-08-10T05:33:27.303Z,59.79
2018-08-10T05:34:27.284Z,60.80
2018-08-10T05:35:27.273Z,59.79
2018-08-10T05:36:27.261Z,61.10
2018-08-10T05:37:27.246Z,60.80
2018-08-10T05:38:27.251Z,61.00
2018-08-10T05:39:27.225Z,61.67
2018-08-10T05:40:27.217Z,62.01
2018-08-10T05:41:27.248Z,62.01
2018-08-10T05:42:27.194Z,63.01
2018-08-10T05:43:27.201Z,62.30
2018-08-10T05:44:27.170Z,61.90
2018-08-10T05:45:27.163Z,62.41
2018-08-10T05:46:27.227Z,61.20
2018-08-10T05:47:27.138Z,61.43
2018-08-10T05:48:27.150Z,62.41
2018-08-10T05:49:27.115Z,62.30
2018-08-10T05:50:27.107Z,63.31
2018-08-10T05:51:27.092Z,62.71
2018-08-10T05:52:27.145Z,65.12
2018-08-10T05:53:27.082Z,63.31
2018-08-10T05:54:27.065Z,62.21
2018-08-10T05:55:27.048Z,61.13
2018-08-10T05:56:27.035Z,62.74
2018-08-10T05:57:27.077Z,62.13
2018-08-10T05:58:27.025Z,63.14
2018-08-10T05:59:27.003Z,62.54
2018-08-10T06:00:26.992Z,63.45
2018-08-10T06:01:26.983Z,62.04
2018-08-10T06:02:26.968Z,62.94
2018-08-10T06:03:26.993Z,62.74
2018-08-10T06:04:26.950Z,61.83
2018-08-10T06:05:26.935Z,62.44
2018-08-10T06:06:26.930Z,64.35
2018-08-10T06:07:26.918Z,60.72
2018-08-10T06:08:26.922Z,60.72
2018-08-10T06:09:26.896Z,61.53
2018-08-10T06:10:26.911Z,60.63
2018-08-10T06:11:26.872Z,59.82
2018-08-10T06:12:26.857Z,61.53
2018-08-10T06:13:26.850Z,61.83
2018-08-10T06:14:26.846Z,60.75
2018-08-10T06:15:26.863Z,62.54
2018-08-10T06:16:26.813Z,63.14
2018-08-10T06:17:26.802Z,61.23
2018-08-10T06:18:26.797Z,62.16
2018-08-10T06:19:26.855Z,62.13
2018-08-10T06:20:26.768Z,62.46
2018-08-10T06:21:26.759Z,62.34
2018-08-10T06:22:26.769Z,63.14
2018-08-10T06:23:26.734Z,63.24
2018-08-10T06:24:26.738Z,65.26
2018-08-10T06:25:26.715Z,63.24
2018-08-10T06:26:26.703Z,61.73
2018-08-10T06:27:26.691Z,61.73
2018-08-10T06:28:26.683Z,62.34
2018-08-10T06:29:26.719Z,61.03
2018-08-10T06:30:26.657Z,61.13
2018-08-10T06:31:26.646Z,60.72
2018-08-10T06:32:26.636Z,61.13
2018-08-10T06:33:26.623Z,60.49
2018-08-10T06:34:26.622Z,61.10
2018-08-10T06:35:26.608Z,59.79
2018-08-10T06:36:26.589Z,61.00
2018-08-10T06:37:26.581Z,60.60
2018-08-10T06:38:26.575Z,61.07
2018-08-10T06:39:26.567Z,60.36
2018-08-10T06:40:26.546Z,58.65
2018-08-10T06:41:26.539Z,59.76
2018-08-10T06:42:26.532Z,63.28
2018-08-10T06:43:26.513Z,59.56
2018-08-10T06:44:26.514Z,59.76
2018-08-10T06:45:26.493Z,60.06
2018-08-10T06:46:26.510Z,59.76
2018-08-10T06:47:26.471Z,59.26
2018-08-10T06:48:26.472Z,59.36
2018-08-10T06:49:26.458Z,58.98
2018-08-10T06:50:26.436Z,59.86
2018-08-10T06:51:26.426Z,60.57
2018-08-10T06:52:26.461Z,63.48
2018-08-10T06:53:26.401Z,61.57
2018-08-10T06:54:26.407Z,61.07
2018-08-10T06:55:26.384Z,61.77
2018-08-10T06:56:26.371Z,61.47
2018-08-10T06:57:26.360Z,60.74
2018-08-10T06:58:26.347Z,58.55
2018-08-10T06:59:26.349Z,59.74
2018-08-10T07:00:26.363Z,57.82
2018-08-10T07:01:26.360Z,58.93
2018-08-10T07:02:26.306Z,59.20
2018-08-10T07:03:26.297Z,56.86
2018-08-10T07:04:26.292Z,58.24
2018-08-10T07:05:26.268Z,55.40
2018-08-10T07:06:26.256Z,54.58
2018-08-10T07:07:26.263Z,53.87
2018-08-10T07:08:26.235Z,52.44
2018-08-10T07:09:26.233Z,52.24
2018-08-10T07:10:26.211Z,53.62
2018-08-10T07:11:26.215Z,52.94
2018-08-10T07:12:26.194Z,53.55
2018-08-10T07:13:26.183Z,52.14
2018-08-10T07:14:26.189Z,51.84
2018-08-10T07:15:26.157Z,53.02
2018-08-10T07:16:26.144Z,52.29
2018-08-10T07:17:26.138Z,50.59
2018-08-10T07:18:26.126Z,52.12
2018-08-10T07:19:26.124Z,52.72
2018-08-10T07:20:26.101Z,53.72
2018-08-10T07:21:26.095Z,49.93
2018-08-10T07:22:26.078Z,52.64
2018-08-10T07:23:26.072Z,52.64
2018-08-10T07:24:26.068Z,52.44
2018-08-10T07:25:26.048Z,51.56
2018-08-10T07:26:26.038Z,54.07
2018-08-10T07:27:26.023Z,52.29
2018-08-10T07:28:26.012Z,52.59
2018-08-10T07:29:26.015Z,52.69
2018-08-10T07:30:25.991Z,52.49
2018-08-10T07:31:25.979Z,52.51
2018-08-10T07:32:25.972Z,51.72
2018-08-10T07:33:25.959Z,52.72
2018-08-10T07:34:26.016Z,51.72
2018-08-10T07:35:25.934Z,52.09
2018-08-10T07:36:25.922Z,51.67
2018-08-10T07:37:25.921Z,50.94
2018-08-10T07:38:25.906Z,50.62
2018-08-10T07:39:25.904Z,49.74
2018-08-10T07:40:25.880Z,51.14
2018-08-10T07:41:25.867Z,52.14
2018-08-10T07:42:25.859Z,51.74
2018-08-10T07:43:25.846Z,52.92
2018-08-10T07:44:25.843Z,50.01
2018-08-10T07:45:25.826Z,49.41
2018-08-10T07:46:25.872Z,50.11
2018-08-10T07:47:25.831Z,51.62
2018-08-10T07:48:25.790Z,53.09
2018-08-10T07:49:25.796Z,50.69
2018-08-10T07:50:25.777Z,47.99
2018-08-10T07:51:25.761Z,49.74
2018-08-10T07:52:25.754Z,49.49
2018-08-10T07:53:25.734Z,46.77
2018-08-10T07:54:25.739Z,47.45
2018-08-10T07:55:25.718Z,49.70
2018-08-10T07:56:25.705Z,45.21
2018-08-10T07:57:25.693Z,45.48
2018-08-10T07:58:25.686Z,45.21
2018-08-10T07:59:25.688Z,47.10
2018-08-10T08:00:25.662Z,47.10
2018-08-10T08:01:25.647Z,46.28
2018-08-10T08:02:25.634Z,46.46
2018-08-10T08:03:25.624Z,45.84
2018-08-10T08:04:25.628Z,46.14
2018-08-10T08:05:25.605Z,45.34
2018-08-10T08:06:25.662Z,45.22
2018-08-10T08:07:25.580Z,45.60
2018-08-10T08:08:25.577Z,44.38
2018-08-10T08:09:25.577Z,44.18
2018-08-10T08:10:25.558Z,43.79
2018-08-10T08:11:25.538Z,42.47
2018-08-10T08:12:25.524Z,44.36
2018-08-10T08:13:25.514Z,42.75
2018-08-10T08:14:25.626Z,43.27
2018-08-10T08:15:25.496Z,43.45
2018-08-10T08:16:25.486Z,46.61
2018-08-10T08:17:25.471Z,45.10
2018-08-10T08:18:25.460Z,46.53
2018-08-10T08:19:25.503Z,42.25
2018-08-10T08:20:25.447Z,42.55
2018-08-10T08:21:25.427Z,44.20
2018-08-10T08:22:25.483Z,42.49
2018-08-10T08:23:25.406Z,44.07
2018-08-10T08:24:25.395Z,42.21
2018-08-10T08:25:25.392Z,41.69
2018-08-10T08:26:25.371Z,45.84
2018-08-10T08:27:25.360Z,43.74
2018-08-10T08:28:25.351Z,45.72
2018-08-10T08:29:25.342Z,39.75
2018-08-10T08:30:25.341Z,42.71
2018-08-10T08:31:25.316Z,42.57
2018-08-10T08:32:25.307Z,42.93
2018-08-10T08:33:25.296Z,46.05
2018-08-10T08:34:25.290Z,43.84
2018-08-10T08:35:25.284Z,44.02
2018-08-10T08:36:25.261Z,44.14
2018-08-10T08:37:25.251Z,42.11
2018-08-10T08:38:25.312Z,41.50
2018-08-10T08:39:25.239Z,42.03
2018-08-10T08:40:25.227Z,42.11
2018-08-10T08:41:25.213Z,41.75
2018-08-10T08:42:25.196Z,42.31
2018-08-10T08:43:25.188Z,44.02
2018-08-10T08:44:25.175Z,44.57
2018-08-10T08:45:25.194Z,45.44
2018-08-10T08:46:25.494Z,47.08
2018-08-10T08:47:25.174Z,46.28
2018-08-10T08:48:25.166Z,46.96
2018-08-10T08:49:25.138Z,47.00
2018-08-10T08:50:25.122Z,45.98
2018-08-10T08:51:25.097Z,46.54
2018-08-10T08:52:25.087Z,44.18
2018-08-10T08:53:25.078Z,45.03
2018-08-10T08:54:25.064Z,43.50
2018-08-10T08:55:25.065Z,41.47
2018-08-10T08:56:25.042Z,43.90
2018-08-10T08:57:25.037Z,38.20
2018-08-10T08:58:25.021Z,39.89
2018-08-10T08:59:25.060Z,39.45
2018-08-10T09:00:25.011Z,37.43
2018-08-10T09:01:24.990Z,36.58
2018-08-10T09:02:24.985Z,37.07
2018-08-10T09:03:24.967Z,39.79
2018-08-10T09:04:24.956Z,37.41
2018-08-10T09:05:24.952Z,38.09
2018-08-10T09:06:24.932Z,36.41
2018-08-10T09:07:25.013Z,36.41
2018-08-10T09:08:24.912Z,36.71
2018-08-10T09:09:24.901Z,36.39
2018-08-10T09:10:24.977Z,36.61
2018-08-10T09:11:24.884Z,36.10
2018-08-10T09:12:24.867Z,36.46
2018-08-10T09:13:24.862Z,36.63
2018-08-10T09:14:24.890Z,36.99
2018-08-10T09:15:24.844Z,35.40
2018-08-10T09:16:24.820Z,36.96
2018-08-10T09:17:24.868Z,33.53
2018-08-10T09:18:24.804Z,33.91
2018-08-10T09:19:24.790Z,35.08
2018-08-10T09:20:24.789Z,34.58
2018-08-10T09:21:24.774Z,32.24
2018-08-10T09:22:24.760Z,33.92
2018-08-10T09:23:24.804Z,32.85
2018-08-10T09:24:24.733Z,33.74
2018-08-10T09:25:24.734Z,34.31
2018-08-10T09:26:24.760Z,34.48
2018-08-10T09:27:24.703Z,35.40
2018-08-10T09:28:24.692Z,36.24
2018-08-10T09:29:24.680Z,34.72
2018-08-10T09:30:24.681Z,32.34
2018-08-10T09:31:24.661Z,33.54
2018-08-10T09:32:24.657Z,32.45
2018-08-10T09:33:24.640Z,32.29
2018-08-10T09:34:24.636Z,33.80
2018-08-10T09:35:24.628Z,33.98
2018-08-10T09:36:24.604Z,34.34
2018-08-10T09:37:24.595Z,32.12
2018-08-10T09:38:24.630Z,33.75
2018-08-10T09:39:24.573Z,34.17
2018-08-10T09:40:24.571Z,35.57
2018-08-10T09:41:24.554Z,36.08
2018-08-10T09:42:24.536Z,37.90
2018-08-10T09:43:24.526Z,40.60
2018-08-10T09:44:24.513Z,40.17
2018-08-10T09:45:24.533Z,35.77
2018-08-10T09:46:24.492Z,35.37
2018-08-10T09:47:24.483Z,36.51
2018-08-10T09:48:24.478Z,37.88
2018-08-10T09:49:24.463Z,41.30
2018-08-10T09:50:24.461Z,36.98
2018-08-10T09:51:24.437Z,35.27
2018-08-10T09:52:24.440Z,39.18
2018-08-10T09:53:24.418Z,37.27
2018-08-10T09:54:24.418Z,33.89
2018-08-10T09:55:24.406Z,33.47
2018-08-10T09:56:24.385Z,32.60
2018-08-10T09:57:24.371Z,32.45
2018-08-10T09:58:24.361Z,33.73
2018-08-10T09:59:24.353Z,33.97
2018-08-10T10:00:24.348Z,32.76
2018-08-10T10:01:24.327Z,34.76
2018-08-10T10:02:24.317Z,32.58
2018-08-10T10:03:24.317Z,34.28
2018-08-10T10:04:24.296Z,35.88
2018-08-10T10:05:24.315Z,35.41
2018-08-10T10:06:24.273Z,36.53
2018-08-10T10:07:24.270Z,36.35
2018-08-10T10:08:24.252Z,36.55
2018-08-10T10:09:24.240Z,38.85
2018-08-10T10:10:24.244Z,37.26
2018-08-10T10:11:24.221Z,35.69
2018-08-10T10:12:24.209Z,41.87
2018-08-10T10:13:24.213Z,37.40
2018-08-10T10:14:24.190Z,36.64
2018-08-10T10:15:24.191Z,38.05
2018-08-10T10:16:24.184Z,39.25
2018-08-10T10:17:24.205Z,38.84
2018-08-10T10:18:24.143Z,38.35
2018-08-10T10:19:24.136Z,39.46
2018-08-10T10:20:24.152Z,37.37
2018-08-10T10:21:24.110Z,38.68
2018-08-10T10:22:24.096Z,38.48
2018-08-10T10:23:24.088Z,38.31
2018-08-10T10:24:24.074Z,40.40
2018-08-10T10:25:24.065Z,39.42
2018-08-10T10:26:24.063Z,40.52
2018-08-10T10:27:24.045Z,41.31
2018-08-10T10:28:24.031Z,42.91
2018-08-10T10:29:24.022Z,40.22
2018-08-10T10:30:24.011Z,37.72
2018-08-10T10:31:24.016Z,41.31
2018-08-10T10:32:23.989Z,40.92
2018-08-10T10:33:23.977Z,40.01
2018-08-10T10:34:23.981Z,39.30
2018-08-10T10:35:23.953Z,39.40
2018-08-10T10:36:23.963Z,39.40
2018-08-10T10:37:23.937Z,40.48
2018-08-10T10:38:23.921Z,40.88
2018-08-10T10:39:23.913Z,38.39
2018-08-10T10:40:23.904Z,38.59
2018-08-10T10:41:23.928Z,39.86
2018-08-10T10:42:23.879Z,39.56
2018-08-10T10:43:23.870Z,42.55
2018-08-10T10:44:23.860Z,39.46
2018-08-10T10:45:23.845Z,38.75
2018-08-10T10:46:23.847Z,37.25
2018-08-10T10:47:23.838Z,36.77
2018-08-10T10:48:23.813Z,37.29
2018-08-10T10:49:23.801Z,40.28
2018-08-10T10:50:23.792Z,37.49
2018-08-10T10:51:23.788Z,40.10
2018-08-10T10:52:23.771Z,38.68
2018-08-10T10:53:23.761Z,39.98
2018-08-10T10:54:23.747Z,40.16
2018-08-10T10:55:23.769Z,38.27
2018-08-10T10:56:23.744Z,39.06
2018-08-10T10:57:23.717Z,38.37
2018-08-10T10:58:23.704Z,39.26
2018-08-10T10:59:23.692Z,38.07
2018-08-10T11:00:23.683Z,37.17
2018-08-10T11:01:23.680Z,39.26
2018-08-10T11:02:23.660Z,37.17
2018-08-10T11:03:23.647Z,38.25
2018-08-10T11:04:23.636Z,36.27
2018-08-10T11:05:23.628Z,38.07
2018-08-10T11:06:23.706Z,37.47
2018-08-10T11:07:23.604Z,36.47
2018-08-10T11:08:23.597Z,37.08
2018-08-10T11:09:23.584Z,38.48
2018-08-10T11:10:23.573Z,37.08
2018-08-10T11:11:23.569Z,38.00
2018-08-10T11:12:23.549Z,37.90
2018-08-10T11:13:23.537Z,38.68
2018-08-10T11:14:23.527Z,38.18
2018-08-10T11:15:23.520Z,40.38
2018-08-10T11:16:23.515Z,38.59
2018-08-10T11:17:23.497Z,39.08
2018-08-10T11:18:23.490Z,39.26
2018-08-10T11:19:23.473Z,36.69
2018-08-10T11:20:23.461Z,35.59
2018-08-10T11:21:23.467Z,36.69
2018-08-10T11:22:23.441Z,37.59
2018-08-10T11:23:23.430Z,36.59
2018-08-10T11:24:23.417Z,35.69
2018-08-10T11:25:23.526Z,36.97
2018-08-10T11:26:23.408Z,38.78
2018-08-10T11:27:23.386Z,37.57
2018-08-10T11:28:23.379Z,38.09
2018-08-10T11:29:23.361Z,38.29
2018-08-10T11:30:23.385Z,37.07
2018-08-10T11:31:23.352Z,36.67
2018-08-10T11:32:23.390Z,40.16
2018-08-10T11:33:23.322Z,38.65
2018-08-10T11:34:23.311Z,37.25
2018-08-10T11:35:23.298Z,36.65
2018-08-10T11:36:23.305Z,39.54
2018-08-10T11:37:23.276Z,35.36
2018-08-10T11:38:23.264Z,35.86
2018-08-10T11:39:23.253Z,36.65
2018-08-10T11:40:23.240Z,35.86
2018-08-10T11:41:23.247Z,37.57
2018-08-10T11:42:23.219Z,36.85
2018-08-10T11:43:23.210Z,37.17
2018-08-10T11:44:23.211Z,36.87
2018-08-10T11:45:23.187Z,36.47
2018-08-10T11:46:23.188Z,39.16
2018-08-10T11:47:23.171Z,36.27
2018-08-10T11:48:23.157Z,36.29
2018-08-10T11:49:23.149Z,37.19
2018-08-10T11:50:23.134Z,39.08
2018-08-10T11:51:23.133Z,37.57
2018-08-10T11:52:23.117Z,36.67
2018-08-10T11:53:23.101Z,38.46
2018-08-10T11:54:23.093Z,38.56
2018-08-10T11:55:23.080Z,37.75
2018-08-10T11:56:23.089Z,36.65
2018-08-10T11:57:23.073Z,36.25
2018-08-10T11:58:23.046Z,37.07
2018-08-10T11:59:23.035Z,38.46
2018-08-10T12:00:23.049Z,38.56
2018-08-10T12:01:23.024Z,38.17
2018-08-10T12:02:23.004Z,38.37
2018-08-10T12:03:22.991Z,39.06
2018-08-10T12:04:22.979Z,38.37
2018-08-10T12:05:22.970Z,37.67
2018-08-10T12:06:22.968Z,37.38
2018-08-10T12:07:22.949Z,38.18
2018-08-10T12:08:22.935Z,37.70
2018-08-10T12:09:22.925Z,38.50
2018-08-10T12:10:22.915Z,40.40
2018-08-10T12:11:22.913Z,41.89
2018-08-10T12:12:22.894Z,39.88
2018-08-10T12:13:22.881Z,39.98
2018-08-10T12:14:22.869Z,37.68
2018-08-10T12:15:22.863Z,38.27
2018-08-10T12:16:22.856Z,36.59
2018-08-10T12:17:22.836Z,36.79
2018-08-10T12:20:56.580Z,37.68
2018-08-10T12:21:56.580Z,40.68
2018-08-10T12:22:56.560Z,38.48
2018-08-10T12:23:56.543Z,36.97
2018-08-10T12:24:56.565Z,39.28
2018-08-10T12:25:56.573Z,38.96
2018-08-10T12:26:56.523Z,38.39
2018-08-10T12:27:56.499Z,37.79
2018-08-10T12:28:56.490Z,37.68
2018-08-10T12:29:56.475Z,37.21
2018-08-10T12:30:56.465Z,37.51
2018-08-10T12:31:56.465Z,38.70
2018-08-10T12:32:56.445Z,38.80
2018-08-10T12:33:56.431Z,38.10
2018-08-10T12:34:56.420Z,39.30
2018-08-10T12:35:56.425Z,39.00
2018-08-10T12:36:56.410Z,38.98
2018-08-10T12:37:56.391Z,39.28
2018-08-10T12:38:56.383Z,37.08
2018-08-10T12:39:56.409Z,37.60
2018-08-10T12:40:56.356Z,38.98
2018-08-10T12:41:56.354Z,48.58
2018-08-10T12:42:56.340Z,44.81
2018-08-10T12:43:56.320Z,43.27
2018-08-10T12:44:56.314Z,48.90
2018-08-10T12:45:56.301Z,44.21
2018-08-10T12:46:56.302Z,42.24
2018-08-10T12:47:56.279Z,44.34
2018-08-10T12:48:56.269Z,45.24
2018-08-10T12:49:56.258Z,42.32
2018-08-10T12:50:56.244Z,45.31
2018-08-10T12:51:56.247Z,42.82
2018-08-10T12:52:56.227Z,41.47
2018-08-10T12:53:56.214Z,40.66
2018-08-10T12:54:56.202Z,42.46
2018-08-10T12:55:56.196Z,39.95
2018-08-10T12:56:56.233Z,40.64
2018-08-10T12:57:56.173Z,40.23
2018-08-10T12:58:56.160Z,39.04
2018-08-10T12:59:56.156Z,38.64
2018-08-10T13:00:56.136Z,39.84
2018-08-10T13:01:56.143Z,42.71
2018-08-10T13:02:56.145Z,44.11
2018-08-10T13:03:56.105Z,40.72
2018-08-10T13:04:56.096Z,40.32
2018-08-10T13:05:56.089Z,36.91
2018-08-10T13:06:56.080Z,38.92
2018-08-10T13:07:56.060Z,37.90
2018-08-10T13:08:56.051Z,38.20
2018-08-10T13:09:56.036Z,39.22
2018-08-10T13:10:56.030Z,38.22
2018-08-10T13:11:56.031Z,37.52
2018-08-10T13:12:56.007Z,37.23
2018-08-10T13:13:55.997Z,37.32
2018-08-10T13:14:55.981Z,39.92
2018-08-10T13:15:55.972Z,39.54
2018-08-10T13:16:55.973Z,37.14
2018-08-10T13:17:55.953Z,37.44
2018-08-10T13:18:55.939Z,37.24
2018-08-10T13:19:55.934Z,37.14
2018-08-10T13:20:55.928Z,38.24
2018-08-10T13:21:55.916Z,37.72
2018-08-10T13:22:55.896Z,40.92
2018-08-10T13:23:55.919Z,42.02
2018-08-10T13:24:55.873Z,36.63
2018-08-10T13:25:55.863Z,37.60
2018-08-10T13:26:55.860Z,36.51
2018-08-10T13:27:55.840Z,39.00
2018-08-10T13:28:55.828Z,36.51
2018-08-10T13:29:55.820Z,37.10
2018-08-10T13:30:55.806Z,40.00
2018-08-10T13:31:55.807Z,38.50
2018-08-10T13:32:55.796Z,37.60
2018-08-10T13:33:55.772Z,37.30
2018-08-10T13:34:55.772Z,36.21
2018-08-10T13:35:55.754Z,37.51
2018-08-10T13:36:55.749Z,36.91
2018-08-10T13:37:55.745Z,38.50
2018-08-10T13:38:55.724Z,37.21
2018-08-10T13:39:55.709Z,37.60
2018-08-10T13:40:55.759Z,38.40
2018-08-10T13:41:55.689Z,39.72
2018-08-10T13:42:55.685Z,40.50
2018-08-10T13:43:55.668Z,40.12
2018-08-10T13:44:55.657Z,37.32
2018-08-10T13:45:55.642Z,38.52
2018-08-10T13:46:55.630Z,37.60
2018-08-10T13:47:55.632Z,36.91
2018-08-10T13:48:55.609Z,38.10
2018-08-10T13:49:55.600Z,38.20
2018-08-10T13:50:55.590Z,39.08
2018-08-10T13:51:55.576Z,37.68
2018-08-10T13:52:55.580Z,38.78
2018-08-10T13:53:55.556Z,39.28
2018-08-10T13:54:55.549Z,38.18
2018-08-10T13:55:55.535Z,37.29
2018-08-10T13:56:55.525Z,37.08
2018-08-10T13:57:55.525Z,36.19
2018-08-10T13:58:55.503Z,36.19
2018-08-10T13:59:55.491Z,37.29
2018-08-10T14:00:55.478Z,39.58
2018-08-10T14:01:55.470Z,38.18
2018-08-10T14:02:55.470Z,38.29
2018-08-10T14:03:55.454Z,36.69
2018-08-10T14:04:55.445Z,35.89
2018-08-10T14:05:55.573Z,35.79
2018-08-10T14:06:55.412Z,36.39
2018-08-10T14:07:55.411Z,36.59
2018-08-10T14:08:55.394Z,35.99
2018-08-10T14:09:55.381Z,39.38
2018-08-10T14:10:55.372Z,35.39
2018-08-10T14:11:55.358Z,36.11
2018-08-10T14:12:55.360Z,36.80
2018-08-10T14:13:55.338Z,38.40
2018-08-10T14:14:55.327Z,37.21
2018-08-10T14:15:55.522Z,38.20
2018-08-10T14:16:55.302Z,35.51
2018-08-10T14:17:55.301Z,36.41
2018-08-10T14:18:55.281Z,37.60
2018-08-10T14:19:55.274Z,35.81
2018-08-10T14:20:55.258Z,35.81
2018-08-10T14:21:55.255Z,35.42
2018-08-10T14:22:55.256Z,37.23
2018-08-10T14:23:55.225Z,36.52
2018-08-10T14:24:55.216Z,36.63
2018-08-10T14:25:55.204Z,39.22
2018-08-10T14:26:55.194Z,37.92
2018-08-10T14:27:55.225Z,37.92
2018-08-10T14:28:55.176Z,36.64
2018-08-10T14:29:55.160Z,37.74
2018-08-10T14:30:55.151Z,39.94
2018-08-10T14:31:55.140Z,39.22
2018-08-10T14:32:55.138Z,38.12
2018-08-10T14:33:55.117Z,37.02
2018-08-10T14:34:55.107Z,36.43
2018-08-10T14:35:55.127Z,35.63
2018-08-10T14:36:55.083Z,36.43
2018-08-10T14:37:55.093Z,37.32
2018-08-10T14:38:55.072Z,37.32
2018-08-10T14:39:55.051Z,37.23
2018-08-10T14:40:55.038Z,37.51
2018-08-10T14:41:55.030Z,36.41
2018-08-10T14:42:55.029Z,35.71
2018-08-10T14:43:55.008Z,33.81
2018-08-10T14:44:54.996Z,34.59
2018-08-10T14:45:54.989Z,35.39
2018-08-10T14:46:55.035Z,38.39
2018-08-10T14:47:54.974Z,34.81
2018-08-10T14:48:54.955Z,34.81
2018-08-10T14:49:54.941Z,36.01
2018-08-10T14:50:54.933Z,35.41
2018-08-10T14:51:54.919Z,35.72
2018-08-10T14:52:54.921Z,35.31
2018-08-10T14:53:54.899Z,35.72
2018-08-10T14:54:54.886Z,34.93
2018-08-10T14:55:54.874Z,36.63
2018-08-10T14:56:54.863Z,36.63
2018-08-10T14:57:54.864Z,34.73
2018-08-10T14:58:54.849Z,36.82
2018-08-10T14:59:54.832Z,36.32
2018-08-10T15:00:54.821Z,35.63
2018-08-10T15:01:54.810Z,35.05
2018-08-10T15:02:54.809Z,37.54
2018-08-10T15:03:54.792Z,37.34
2018-08-10T15:04:54.776Z,36.44
2018-08-10T15:05:54.766Z,40.34
2018-08-10T15:06:54.756Z,38.76
2018-08-10T15:07:54.755Z,38.06
2018-08-10T15:08:54.738Z,39.56
2018-08-10T15:09:54.724Z,35.96
2018-08-10T15:10:54.713Z,36.86
2018-08-10T15:11:54.825Z,36.86
2018-08-10T15:12:55.007Z,36.36
2018-08-10T15:13:54.678Z,37.56
2018-08-10T15:14:54.673Z,36.86
2018-08-10T15:15:54.656Z,36.56
2018-08-10T15:16:54.649Z,40.25
2018-08-10T15:17:54.645Z,40.66
2018-08-10T15:18:54.625Z,36.26
2018-08-10T15:19:54.612Z,39.95
2018-08-10T15:20:54.603Z,36.16
2018-08-10T15:21:54.590Z,36.66
2018-08-10T15:22:54.591Z,37.14
2018-08-10T15:23:54.567Z,36.54
2018-08-10T15:24:54.566Z,36.56
2018-08-10T15:25:54.548Z,37.74
2018-08-10T15:26:55.005Z,37.34
2018-08-10T15:27:54.538Z,37.14
2018-08-10T15:28:54.520Z,35.14
2018-08-10T15:29:54.504Z,36.54
2018-08-10T15:30:54.491Z,36.63
2018-08-10T15:31:54.482Z,34.53
2018-08-10T15:32:54.484Z,37.23
2018-08-10T15:33:54.472Z,36.72
2018-08-10T15:34:54.450Z,36.32
2018-08-10T15:35:54.436Z,36.32
2018-08-10T15:36:54.430Z,35.53
2018-08-10T15:37:54.447Z,34.21
2018-08-10T15:38:54.406Z,33.93
2018-08-10T15:39:54.394Z,34.43
2018-08-10T15:40:54.386Z,34.25
2018-08-10T15:41:54.378Z,34.75
2018-08-10T15:42:54.361Z,35.24
2018-08-10T15:43:54.359Z,35.44
2018-08-10T15:44:54.338Z,35.44
2018-08-10T15:45:54.331Z,36.74
2018-08-10T15:46:54.324Z,37.34
2018-08-10T15:47:54.306Z,37.44
2018-08-10T15:48:54.324Z,37.94
2018-08-10T15:49:54.299Z,36.54
2018-08-10T15:50:54.278Z,34.13
2018-08-10T15:51:54.262Z,35.33
2018-08-10T15:52:54.251Z,34.53
2018-08-10T15:53:54.251Z,34.63
2018-08-10T15:54:54.245Z,35.13
2018-08-10T15:55:54.219Z,36.32
2018-08-10T15:56:54.205Z,34.73
2018-08-10T15:57:54.197Z,33.65
2018-08-10T15:58:54.201Z,35.54
2018-08-10T15:59:54.174Z,34.55
2018-08-10T16:00:54.163Z,37.54
2018-08-10T16:01:54.154Z,36.84
2018-08-10T16:02:54.141Z,38.46
2018-08-10T16:03:54.147Z,38.76
2018-08-10T16:04:54.118Z,38.36
2018-08-10T16:05:54.152Z,37.36
2018-08-10T16:06:54.098Z,37.56
2018-08-10T16:07:54.086Z,38.16
2018-08-10T16:08:54.085Z,38.98
2018-08-10T16:09:54.066Z,42.85
2018-08-10T16:10:54.056Z,40.78
2018-08-10T16:11:54.043Z,41.66
2018-08-10T16:12:54.031Z,41.85
2018-08-10T16:13:54.093Z,41.66
2018-08-10T16:14:54.010Z,40.66
2018-08-10T16:15:53.996Z,40.58
2018-08-10T16:16:53.988Z,40.67
2018-08-10T16:17:53.976Z,42.97
2018-08-10T16:18:53.973Z,38.70
2018-08-10T16:19:53.959Z,39.50
2018-08-10T16:20:53.941Z,40.58
2018-08-10T16:21:53.937Z,40.47
2018-08-10T16:22:53.923Z,36.38
2018-08-10T16:23:53.921Z,36.78
2018-08-10T16:24:53.899Z,37.66
2018-08-10T16:25:53.889Z,36.86
2018-08-10T16:26:53.877Z,39.98
2018-08-10T16:27:53.864Z,44.25
2018-08-10T16:28:53.865Z,37.18
2018-08-10T16:29:53.846Z,39.98
2018-08-10T16:30:53.834Z,39.07
2018-08-10T16:31:53.863Z,39.20
2018-08-10T16:32:53.810Z,38.09
2018-08-10T16:33:53.812Z,39.50
2018-08-10T16:34:53.790Z,37.19
2018-08-10T16:35:53.798Z,37.10
2018-08-10T16:36:53.769Z,37.79
2018-08-10T16:37:53.759Z,37.29
2018-08-10T16:38:53.782Z,40.19
2018-08-10T16:39:53.736Z,40.39
2018-08-10T16:40:53.723Z,38.20
2018-08-10T16:41:53.710Z,43.70
2018-08-10T16:42:53.702Z,41.89
2018-08-10T16:43:53.701Z,43.70
2018-08-10T16:44:53.684Z,40.31
2018-08-10T16:45:53.669Z,38.59
2018-08-10T16:46:53.660Z,40.22
2018-08-10T16:47:53.646Z,44.51
2018-08-10T16:48:53.647Z,43.21
2018-08-10T16:49:53.732Z,45.31
2018-08-10T16:50:53.618Z,47.72
2018-08-10T16:51:53.601Z,46.51
2018-08-10T16:52:53.589Z,48.22
2018-08-10T16:53:53.594Z,47.34
2018-08-10T16:54:53.652Z,47.64